Time;durP1;ratioP1;P1;durP2;ratioP2;P2;SDS_P1;SDS_P2;PMS_P1;PMS_P2;Temp;Humidity;BMP_temperature;BMP_pressure;BME280_temperature;BME280_humidity;BME280_pressure;Samples;Min_cycle;Max_cycle;Signal;HPM_P1;HPM_P2
2023/10/22 00:00:39;;;;;;;;;;;;;;;20.65;53.32;96778.79;594720;238;69574;-67
2023/10/22 00:03:06;;;;;;;;;;;;;;;20.65;53.30;96772.66;594742;238;64633;-67
2023/10/22 00:05:34;;;;;;;;;;;;;;;20.66;53.27;96763.59;594803;237;69108;-67
2023/10/22 00:08:02;;;;;;;;;;;;;;;20.64;53.20;96753.17;594719;238;68629;-67
2023/10/22 00:10:29;;;;;;;;;;;;;;;20.65;53.17;96751.30;594750;238;64727;-67
2023/10/22 00:12:57;;;;;;;;;;;;;;;20.65;53.17;96740.61;594761;236;66440;-67
2023/10/22 00:15:25;;;;;;;;;;;;;;;20.65;53.19;96744.08;594787;238;66475;-67
2023/10/22 00:17:53;;;;;;;;;;;;;;;20.65;53.14;96752.09;594763;238;64607;-67
2023/10/22 00:20:20;;;;;;;;;;;;;;;20.65;53.12;96743.28;594802;238;66331;-66
2023/10/22 00:22:48;;;;;;;;;;;;;;;20.65;53.10;96730.73;594735;237;66524;-66
2023/10/22 00:25:15;;;;;;;;;;;;;;;20.65;53.10;96737.94;594743;238;62612;-66
2023/10/22 00:27:43;;;;;;;;;;;;;;;20.64;53.08;96728.34;594687;238;68767;-66
2023/10/22 00:30:11;;;;;;;;;;;;;;;20.64;53.07;96733.69;594686;237;66342;-66
2023/10/22 00:32:38;;;;;;;;;;;;;;;20.65;53.08;96745.95;594724;238;64850;-66
2023/10/22 00:35:06;;;;;;;;;;;;;;;20.65;53.05;96740.61;594741;238;68756;-66
2023/10/22 00:37:34;;;;;;;;;;;;;;;20.65;53.02;96736.06;594727;238;66353;-66
2023/10/22 00:40:03;;;;;;;;;;;;;;;20.64;53.00;96739.82;594785;238;65531;-66
2023/10/22 00:42:30;;;;;;;;;;;;;;;20.64;52.97;96737.15;594739;238;69043;-67
2023/10/22 00:44:58;;;;;;;;;;;;;;;20.65;52.97;96756.63;594777;238;68575;-67
2023/10/22 00:47:26;;;;;;;;;;;;;;;20.64;52.98;96755.84;594728;238;64403;-67
2023/10/22 00:49:53;;;;;;;;;;;;;;;20.64;52.97;96752.38;597998;235;66344;-67
2023/10/22 00:52:21;;;;;;;;;;;;;;;20.65;52.99;96748.63;602055;235;69295;-67
2023/10/22 00:54:49;;;;;;;;;;;;;;;20.65;53.03;96757.42;602069;235;64700;-67
2023/10/22 00:57:17;;;;;;;;;;;;;;;20.64;53.08;96765.73;601893;234;66296;-67
2023/10/22 00:59:45;;;;;;;;;;;;;;;20.64;53.03;96771.06;602234;235;69067;-67
2023/10/22 01:02:12;;;;;;;;;;;;;;;20.65;53.13;96773.45;602241;234;63438;-67
2023/10/22 01:04:40;;;;;;;;;;;;;;;20.64;53.10;96766.52;602520;233;69512;-67
2023/10/22 01:07:08;;;;;;;;;;;;;;;20.64;53.04;96771.86;602382;234;69565;-67
2023/10/22 01:09:36;;;;;;;;;;;;;;;20.65;53.64;96777.99;602111;234;66406;-67
2023/10/22 01:12:05;;;;;;;;;;;;;;;20.64;53.89;96779.88;602171;235;68536;-67
2023/10/22 01:14:33;;;;;;;;;;;;;;;20.63;55.38;96780.95;602261;235;67626;-67
2023/10/22 01:17:01;;;;;;;;;;;;;;;20.63;54.73;96788.17;602258;235;65195;-67
2023/10/22 01:19:28;;;;;;;;;;;;;;;20.63;54.71;96791.64;602259;234;69985;-67
2023/10/22 01:21:57;;;;;;;;;;;;;;;20.64;54.69;96789.76;602220;235;68528;-67
2023/10/22 01:24:25;;;;;;;;;;;;;;;20.64;55.20;96789.76;602328;233;64606;-67
2023/10/22 01:26:53;;;;;;;;;;;;;;;20.63;54.87;96796.18;602147;235;69245;-67
2023/10/22 01:29:21;;;;;;;;;;;;;;;20.63;55.11;96796.97;602260;233;68878;-67
2023/10/22 01:31:48;;;;;;;;;;;;;;;20.62;55.07;96790.02;602271;234;62346;-66
2023/10/22 01:34:16;;;;;;;;;;;;;;;20.61;54.61;96789.23;602186;235;69033;-67
2023/10/22 01:36:45;;;;;;;;;;;;;;;20.63;55.71;96788.17;601740;235;68665;-67
2023/10/22 01:39:14;;;;;;;;;;;;;;;20.63;56.53;96806.86;602051;235;64988;-67
2023/10/22 01:41:42;;;;;;;;;;;;;;;20.61;56.18;96810.59;602235;235;68659;-67
2023/10/22 01:44:09;;;;;;;;;;;;;;;20.61;56.37;96810.59;602209;234;68675;-67
2023/10/22 01:46:37;;;;;;;;;;;;;;;20.61;56.93;96805.24;602115;235;65528;-67
2023/10/22 01:49:04;;;;;;;;;;;;;;;20.60;56.36;96800.98;601273;235;66431;-67
2023/10/22 01:51:32;;;;;;;;;;;;;;;20.60;55.56;96798.31;594675;238;68882;-67
2023/10/22 01:54:01;;;;;;;;;;;;;;;20.60;54.78;96808.20;594839;237;64727;-67
2023/10/22 01:56:28;;;;;;;;;;;;;;;20.61;55.03;96810.59;594806;237;69023;-67
2023/10/22 01:58:56;;;;;;;;;;;;;;;20.60;56.32;96809.00;594807;238;68725;-66
2023/10/22 02:01:26;;;;;;;;;;;;;;;20.61;56.32;96799.91;594741;238;62526;-66
2023/10/22 02:03:54;;;;;;;;;;;;;;;20.59;55.68;96794.03;594732;238;65179;-67
2023/10/22 02:06:22;;;;;;;;;;;;;;;20.60;54.78;96792.98;594762;238;66128;-67
2023/10/22 02:08:49;;;;;;;;;;;;;;;20.60;55.26;96786.84;594734;238;62357;-67
2023/10/22 02:11:18;;;;;;;;;;;;;;;20.60;54.40;96787.64;594773;237;66180;-67
2023/10/22 02:13:46;;;;;;;;;;;;;;;20.60;54.66;96787.64;594761;237;68479;-67
2023/10/22 02:16:13;;;;;;;;;;;;;;;20.60;53.98;96787.64;594764;238;62731;-67
2023/10/22 02:18:41;;;;;;;;;;;;;;;20.61;54.31;96783.09;594813;238;68473;-67
2023/10/22 02:21:10;;;;;;;;;;;;;;;20.61;54.79;96783.88;594752;238;66059;-67
2023/10/22 02:23:39;;;;;;;;;;;;;;;20.61;54.62;96786.55;594763;237;64761;-67
2023/10/22 02:26:08;;;;;;;;;;;;;;;20.61;54.80;96778.55;594791;238;45677;-67
2023/10/22 02:28:36;;;;;;;;;;;;;;;20.60;54.69;96779.63;594709;237;68896;-67
2023/10/22 02:31:04;;;;;;;;;;;;;;;20.61;54.15;96794.56;594820;238;64718;-67
2023/10/22 02:33:33;;;;;;;;;;;;;;;20.61;54.79;96783.88;594766;238;68995;-67
2023/10/22 02:36:02;;;;;;;;;;;;;;;20.61;55.14;96786.55;594786;238;66483;-67
2023/10/22 02:38:30;;;;;;;;;;;;;;;20.62;55.53;96790.02;594749;238;64577;-67
2023/10/22 02:40:58;;;;;;;;;;;;;;;20.61;55.03;96791.89;594707;238;66386;-67
2023/10/22 02:43:25;;;;;;;;;;;;;;;20.61;54.78;96797.23;594732;238;68929;-67
2023/10/22 02:45:54;;;;;;;;;;;;;;;20.60;54.98;96800.98;594742;238;64622;-67
2023/10/22 02:48:23;;;;;;;;;;;;;;;20.60;55.05;96800.20;594774;238;68875;-67
2023/10/22 02:50:50;;;;;;;;;;;;;;;20.60;55.59;96803.66;600865;235;66655;-67
2023/10/22 02:53:18;;;;;;;;;;;;;;;20.60;55.48;96800.98;602172;234;65037;-67
2023/10/22 02:55:46;;;;;;;;;;;;;;;20.60;55.72;96798.31;602174;235;68786;-67
2023/10/22 02:58:13;;;;;;;;;;;;;;;20.60;55.52;96787.64;602246;235;66331;-67
2023/10/22 03:00:41;;;;;;;;;;;;;;;20.61;55.63;96775.88;602170;235;64984;-67
2023/10/22 03:03:08;;;;;;;;;;;;;;;20.60;55.42;96776.17;602418;233;69024;-67
2023/10/22 03:05:36;;;;;;;;;;;;;;;20.60;54.70;96787.64;602082;235;68722;-67
2023/10/22 03:08:04;;;;;;;;;;;;;;;20.60;54.96;96790.31;602057;235;64750;-67
2023/10/22 03:10:32;;;;;;;;;;;;;;;20.60;55.13;96787.64;602010;234;68930;-67
2023/10/22 03:13:00;;;;;;;;;;;;;;;20.60;54.83;96795.65;602242;235;65746;-66
2023/10/22 03:15:27;;;;;;;;;;;;;;;20.59;55.47;96772.67;602507;235;62373;-67
2023/10/22 03:17:56;;;;;;;;;;;;;;;20.60;55.50;96770.83;601909;233;66628;-67
2023/10/22 03:20:24;;;;;;;;;;;;;;;20.60;55.06;96776.17;603350;229;66721;-67
2023/10/22 03:22:53;;;;;;;;;;;;;;;20.59;56.67;96767.33;594488;235;64406;-67
2023/10/22 03:25:24;;;;;;;;;;;;;;;20.60;55.79;96765.48;601434;235;68837;-67
2023/10/22 03:27:51;;;;;;;;;;;;;;;20.59;55.53;96766.54;602108;235;68565;-67
2023/10/22 03:30:19;;;;;;;;;;;;;;;20.59;55.40;96764.66;602212;235;64730;-67
2023/10/22 03:32:47;;;;;;;;;;;;;;;20.60;55.51;96765.48;602122;234;68888;-66
2023/10/22 03:35:15;;;;;;;;;;;;;;;20.59;57.28;96759.33;594349;235;68294;-66
2023/10/22 03:37:42;;;;;;;;;;;;;;;20.59;56.28;96751.31;602284;235;62274;-66
2023/10/22 03:40:10;;;;;;;;;;;;;;;20.58;55.75;96752.40;602215;235;66183;-66
2023/10/22 03:42:38;;;;;;;;;;;;;;;20.59;55.94;96748.64;602251;235;68671;-67
2023/10/22 03:45:06;;;;;;;;;;;;;;;20.59;56.47;96759.33;602063;235;64781;-67
2023/10/22 03:47:34;;;;;;;;;;;;;;;20.59;56.55;96759.33;602113;235;66964;-67
2023/10/22 03:50:02;;;;;;;;;;;;;;;20.59;57.47;96764.66;598188;235;69504;-67
2023/10/22 03:52:29;;;;;;;;;;;;;;;20.58;56.46;96763.08;594677;238;62391;-67
2023/10/22 03:54:58;;;;;;;;;;;;;;;20.58;56.92;96744.39;594804;238;69155;-67
2023/10/22 03:57:25;;;;;;;;;;;;;;;20.58;56.61;96751.61;594770;238;68703;-67
2023/10/22 03:59:53;;;;;;;;;;;;;;;20.58;56.59;96756.95;594727;238;64608;-67
2023/10/22 04:02:21;;;;;;;;;;;;;;;20.58;57.77;96752.40;594794;237;66327;-67
2023/10/22 04:04:48;;;;;;;;;;;;;;;20.58;57.06;96748.94;594761;237;68786;-67
2023/10/22 04:07:16;;;;;;;;;;;;;;;20.58;56.33;96740.92;594728;238;62240;-67
2023/10/22 04:09:43;;;;;;;;;;;;;;;20.58;56.23;96743.59;594675;237;67606;-67
2023/10/22 04:12:10;;;;;;;;;;;;;;;20.58;56.27;96747.06;594695;237;66603;-67
2023/10/22 04:14:38;;;;;;;;;;;;;;;20.58;56.83;96739.05;594818;238;64733;-67
2023/10/22 04:17:05;;;;;;;;;;;;;;;20.58;56.03;96744.39;594749;237;68671;-67
2023/10/22 04:19:33;;;;;;;;;;;;;;;20.58;56.34;96747.06;594786;237;66497;-67
2023/10/22 04:22:01;;;;;;;;;;;;;;;20.59;56.46;96742.52;594727;238;63597;-67
2023/10/22 04:24:28;;;;;;;;;;;;;;;20.57;55.68;96740.13;594749;238;69741;-67
2023/10/22 04:26:56;;;;;;;;;;;;;;;20.58;55.45;96739.05;594767;238;68464;-67
2023/10/22 04:29:23;;;;;;;;;;;;;;;20.58;55.00;96736.38;594726;238;65002;-67
2023/10/22 04:31:51;;;;;;;;;;;;;;;20.58;55.15;96739.05;594826;237;66648;-67
2023/10/22 04:34:19;;;;;;;;;;;;;;;20.59;55.51;96758.53;594731;238;69056;-67
2023/10/22 04:36:46;;;;;;;;;;;;;;;20.59;56.36;96750.52;594871;238;64817;-67
2023/10/22 04:39:14;;;;;;;;;;;;;;;20.60;56.10;96746.80;594747;238;66619;-67
2023/10/22 04:41:43;;;;;;;;;;;;;;;20.58;55.51;96744.39;594841;238;68638;-67
2023/10/22 04:44:10;;;;;;;;;;;;;;;20.60;56.17;96746.80;594825;237;62465;-67
2023/10/22 04:46:38;;;;;;;;;;;;;;;20.60;55.43;96744.13;594765;236;68826;-67
2023/10/22 04:49:05;;;;;;;;;;;;;;;20.59;55.92;96734.50;595609;235;68668;-67
2023/10/22 04:51:33;;;;;;;;;;;;;;;20.59;56.20;96737.17;602076;235;63589;-67
2023/10/22 04:54:00;;;;;;;;;;;;;;;20.59;55.51;96745.18;602248;235;67071;-67
2023/10/22 04:56:28;;;;;;;;;;;;;;;20.59;55.68;96748.64;602107;235;67150;-67
2023/10/22 04:58:55;;;;;;;;;;;;;;;20.58;56.02;96752.40;602170;235;62645;-67
2023/10/22 05:01:23;;;;;;;;;;;;;;;20.59;56.38;96761.99;602064;235;66736;-67
2023/10/22 05:03:50;;;;;;;;;;;;;;;20.58;55.84;96752.40;601770;235;66734;-67
2023/10/22 05:06:18;;;;;;;;;;;;;;;20.59;56.09;96750.52;602353;234;62621;-67
2023/10/22 05:08:46;;;;;;;;;;;;;;;20.58;56.29;96760.41;602260;234;68730;-67
2023/10/22 05:11:14;;;;;;;;;;;;;;;20.58;56.28;96757.73;601652;233;66576;-67
2023/10/22 05:13:41;;;;;;;;;;;;;;;20.58;56.37;96763.08;601918;234;64889;-67
2023/10/22 05:16:10;;;;;;;;;;;;;;;20.58;56.27;96773.76;602197;235;68833;-67
2023/10/22 05:18:40;;;;;;;;;;;;;;;20.58;56.62;96787.11;602346;234;68716;-66
2023/10/22 05:21:09;;;;;;;;;;;;;;;20.58;56.13;96792.45;602058;235;64802;-66
2023/10/22 05:23:36;;;;;;;;;;;;;;;20.58;57.08;96792.45;601832;235;68768;-66
2023/10/22 05:26:06;;;;;;;;;;;;;;;20.58;57.15;96805.00;602251;235;68672;-67
2023/10/22 05:28:33;;;;;;;;;;;;;;;20.58;56.56;96803.12;602134;234;62572;-66
2023/10/22 05:31:01;;;;;;;;;;;;;;;20.58;56.65;96802.33;602159;235;69719;-67
2023/10/22 05:33:28;;;;;;;;;;;;;;;20.58;56.79;96803.12;602017;234;68723;-66
2023/10/22 05:35:56;;;;;;;;;;;;;;;20.58;56.15;96799.66;602468;234;64594;-66
2023/10/22 05:38:23;;;;;;;;;;;;;;;20.58;55.86;96811.13;602041;233;68741;-66
2023/10/22 05:40:51;;;;;;;;;;;;;;;20.59;56.45;96826.07;602061;235;68468;-66
2023/10/22 05:43:18;;;;;;;;;;;;;;;20.57;57.04;96825.56;602149;234;64468;-67
2023/10/22 05:45:47;;;;;;;;;;;;;;;20.59;56.81;96825.28;601990;235;68622;-66
2023/10/22 05:48:14;;;;;;;;;;;;;;;20.58;57.25;96827.16;602028;234;68956;-67
2023/10/22 05:50:42;;;;;;;;;;;;;;;20.58;57.09;96823.69;596307;235;62428;-66
2023/10/22 05:53:09;;;;;;;;;;;;;;;20.57;57.83;96820.23;594625;236;66709;-66
2023/10/22 05:55:37;;;;;;;;;;;;;;;20.57;57.35;96820.23;594758;237;66775;-66
2023/10/22 05:58:06;;;;;;;;;;;;;;;20.57;58.12;96814.89;594723;238;62702;-66
2023/10/22 06:00:33;;;;;;;;;;;;;;;20.57;57.70;96803.38;594777;237;68664;-66
2023/10/22 06:03:01;;;;;;;;;;;;;;;20.57;57.35;96809.55;594813;238;68518;-66
2023/10/22 06:05:28;;;;;;;;;;;;;;;20.57;57.06;96809.55;594793;238;64714;-66
2023/10/22 06:07:56;;;;;;;;;;;;;;;20.56;57.26;96810.60;594811;238;66197;-66
2023/10/22 06:10:27;;;;;;;;;;;;;;;20.56;57.49;96807.93;594677;236;66261;-66
2023/10/22 06:12:53;;;;;;;;;;;;;;;20.56;57.29;96801.80;594686;238;63506;-66
2023/10/22 06:15:20;;;;;;;;;;;;;;;20.57;56.97;96803.38;594953;236;68494;-67
2023/10/22 06:17:48;;;;;;;;;;;;;;;20.57;56.54;96803.38;594700;238;69732;-67
2023/10/22 06:20:15;;;;;;;;;;;;;;;20.57;57.22;96796.20;594788;238;64962;-66
2023/10/22 06:22:44;;;;;;;;;;;;;;;20.58;59.39;96802.33;594707;236;68559;-66
2023/10/22 06:25:11;;;;;;;;;;;;;;;20.55;53.87;96795.66;594740;237;68308;-67
2023/10/22 06:27:39;;;;;;;;;;;;;;;20.57;53.57;96792.70;594819;238;64787;-66
2023/10/22 06:30:07;;;;;;;;;;;;;;;20.58;54.23;96799.66;594723;238;66460;-66
2023/10/22 06:32:34;;;;;;;;;;;;;;;20.59;55.21;96794.03;594767;238;68841;-66
2023/10/22 06:35:02;;;;;;;;;;;;;;;20.58;57.27;96792.45;594691;238;64829;-66
2023/10/22 06:37:29;;;;;;;;;;;;;;;20.60;57.79;96789.52;594651;238;67480;-66
2023/10/22 06:39:59;;;;;;;;;;;;;;;20.60;57.46;96786.84;594819;238;68727;-66
2023/10/22 06:42:29;;;;;;;;;;;;;;;20.59;56.35;96791.36;594761;238;64589;-66
2023/10/22 06:44:56;;;;;;;;;;;;;;;20.61;56.97;96794.56;594696;238;68696;-66
2023/10/22 06:47:24;;;;;;;;;;;;;;;20.61;56.24;96802.58;594771;238;68699;-67
2023/10/22 06:49:52;;;;;;;;;;;;;;;20.63;55.71;96806.86;594635;236;64712;-67
2023/10/22 06:52:19;;;;;;;;;;;;;;;20.63;56.85;96801.52;594838;236;68541;-67
2023/10/22 06:54:47;;;;;;;;;;;;;;;20.64;56.73;96811.12;594778;238;68779;-67
2023/10/22 06:57:14;;;;;;;;;;;;;;;20.64;56.25;96819.12;594677;238;62741;-67
2023/10/22 06:59:42;;;;;;;;;;;;;;;20.64;55.46;96830.60;594742;238;68644;-67
2023/10/22 07:02:10;;;;;;;;;;;;;;;20.65;56.83;96831.40;594670;237;68820;-67
2023/10/22 07:04:37;;;;;;;;;;;;;;;20.65;57.24;96828.72;594790;238;64544;-67
2023/10/22 07:07:04;;;;;;;;;;;;;;;20.65;58.83;96831.40;594730;237;77153;-67
2023/10/22 07:09:32;;;;;;;;;;;;;;;20.66;56.72;96841.02;594743;237;68702;-67
2023/10/22 07:11:59;;;;;;;;;;;;;;;20.66;56.61;96838.35;594629;236;64704;-67
2023/10/22 07:14:27;;;;;;;;;;;;;;;20.66;56.71;96838.35;594768;238;66553;-67
2023/10/22 07:16:54;;;;;;;;;;;;;;;20.66;55.84;96838.35;594748;236;66617;-67
2023/10/22 07:19:22;;;;;;;;;;;;;;;20.68;56.65;96836.19;594743;238;62521;-67
2023/10/22 07:21:49;;;;;;;;;;;;;;;20.67;57.58;96823.92;594716;238;68519;-67
2023/10/22 07:24:17;;;;;;;;;;;;;;;20.67;57.09;96819.38;594687;238;68662;-67
2023/10/22 07:26:44;;;;;;;;;;;;;;;20.68;56.61;96820.16;594646;237;62649;-67
2023/10/22 07:29:12;;;;;;;;;;;;;;;20.68;54.57;96826.33;594659;238;68867;-67
2023/10/22 07:31:39;;;;;;;;;;;;;;;20.68;54.26;96820.16;594786;237;66707;-67
2023/10/22 07:34:07;;;;;;;;;;;;;;;20.70;54.37;96815.36;594735;238;62722;-67
2023/10/22 07:36:35;;;;;;;;;;;;;;;20.70;54.11;96820.70;594797;237;68908;-67
2023/10/22 07:39:02;;;;;;;;;;;;;;;20.70;54.08;96818.82;594629;236;68726;-67
2023/10/22 07:41:30;;;;;;;;;;;;;;;20.70;54.11;96821.49;594790;238;64788;-67
2023/10/22 07:43:58;;;;;;;;;;;;;;;20.72;54.53;96815.89;594855;238;68811;-67
2023/10/22 07:46:26;;;;;;;;;;;;;;;20.71;54.33;96819.64;594747;236;68702;-67
2023/10/22 07:48:54;;;;;;;;;;;;;;;20.72;54.42;96824.70;595025;235;64788;-67
2023/10/22 07:51:24;;;;;;;;;;;;;;;20.72;54.46;96823.91;602293;234;68911;-67
2023/10/22 07:53:50;;;;;;;;;;;;;;;20.72;54.47;96821.23;602369;234;66692;-67
2023/10/22 07:56:18;;;;;;;;;;;;;;;20.72;54.51;96827.36;602265;235;62398;-67
2023/10/22 07:58:46;;;;;;;;;;;;;;;20.73;54.55;96833.50;602183;234;68802;-67
2023/10/22 08:01:13;;;;;;;;;;;;;;;20.73;54.62;96828.95;602080;234;68696;-67
2023/10/22 08:03:40;;;;;;;;;;;;;;;20.73;54.66;96833.50;602234;235;64789;-67
2023/10/22 08:06:08;;;;;;;;;;;;;;;20.75;54.67;96834.03;602348;235;68818;-67
2023/10/22 08:08:35;;;;;;;;;;;;;;;20.73;54.66;96818.27;602126;235;66488;-67
2023/10/22 08:11:04;;;;;;;;;;;;;;;20.74;54.65;96822.56;602316;235;62454;-67
2023/10/22 08:13:32;;;;;;;;;;;;;;;20.74;54.63;96819.09;602518;233;66670;-67
2023/10/22 08:16:01;;;;;;;;;;;;;;;20.75;54.64;96820.68;602137;235;68810;-67
2023/10/22 08:18:28;;;;;;;;;;;;;;;20.75;54.64;96818.02;602272;234;64784;-67
2023/10/22 08:20:58;;;;;;;;;;;;;;;20.76;54.63;96822.27;602384;234;68545;-67
2023/10/22 08:23:26;;;;;;;;;;;;;;;20.75;54.61;96824.14;602390;235;71210;-67
2023/10/22 08:25:53;;;;;;;;;;;;;;;20.76;54.58;96811.59;601985;234;62768;-67
2023/10/22 08:28:21;;;;;;;;;;;;;;;20.76;54.63;96816.92;602293;235;66378;-67
2023/10/22 08:30:48;;;;;;;;;;;;;;;20.76;54.63;96814.26;602082;235;68514;-67
2023/10/22 08:33:16;;;;;;;;;;;;;;;20.76;54.63;96806.24;602159;235;62744;-68
2023/10/22 08:35:44;;;;;;;;;;;;;;;20.76;54.70;96812.41;602298;234;66139;-67
2023/10/22 08:38:11;;;;;;;;;;;;;;;20.77;54.76;96813.20;601707;234;66706;-67
2023/10/22 08:40:44;;;;;;;;;;;;;;;20.76;54.81;96796.39;602245;235;62498;-67
2023/10/22 08:43:10;;;;;;;;;;;;;;;20.77;54.85;96802.52;601875;235;66704;-67
2023/10/22 08:45:38;;;;;;;;;;;;;;;20.77;54.94;96805.19;602231;235;66654;-66
2023/10/22 08:48:06;;;;;;;;;;;;;;;20.77;55.08;96794.51;602425;234;62696;-67
2023/10/22 08:50:34;;;;;;;;;;;;;;;20.77;55.04;96795.30;602253;235;66618;-67
2023/10/22 08:53:02;;;;;;;;;;;;;;;20.78;55.09;96806.78;602128;234;66664;-66
2023/10/22 08:55:30;;;;;;;;;;;;;;;20.78;55.22;96814.79;602164;235;62544;-66
2023/10/22 08:57:59;;;;;;;;;;;;;;;20.78;55.31;96809.45;602206;235;68668;-66
2023/10/22 09:00:27;;;;;;;;;;;;;;;20.77;55.39;96802.52;602119;235;67348;-66
2023/10/22 09:02:56;;;;;;;;;;;;;;;20.78;55.43;96806.78;602159;234;64731;-67
2023/10/22 09:05:24;;;;;;;;;;;;;;;20.78;55.47;96807.57;602242;235;68578;-67
2023/10/22 09:07:55;;;;;;;;;;;;;;;20.78;55.57;96807.57;602224;235;68671;-67
2023/10/22 09:10:26;;;;;;;;;;;;;;;20.79;55.65;96805.72;602052;234;63544;-67
2023/10/22 09:12:54;;;;;;;;;;;;;;;20.79;55.75;96792.37;602073;234;68705;-67
2023/10/22 09:15:22;;;;;;;;;;;;;;;20.80;55.75;96791.28;602441;234;68542;-67
2023/10/22 09:17:53;;;;;;;;;;;;;;;20.78;55.84;96794.22;602151;234;62760;-67
2023/10/22 09:20:23;;;;;;;;;;;;;;;20.79;55.85;96801.17;602220;233;66418;-67
2023/10/22 09:22:50;;;;;;;;;;;;;;;20.79;55.81;96811.06;602215;234;66346;-67
2023/10/22 09:25:18;;;;;;;;;;;;;;;20.80;55.81;96817.99;602361;229;64216;-67
2023/10/22 09:27:46;;;;;;;;;;;;;;;20.80;55.76;96817.99;607133;229;68745;-67
2023/10/22 09:30:13;;;;;;;;;;;;;;;20.80;55.72;96802.77;608908;231;68829;-67
2023/10/22 09:32:47;;;;;;;;;;;;;;;20.80;55.69;96799.30;608780;232;62527;-67
2023/10/22 09:35:14;;;;;;;;;;;;;;;20.80;55.68;96807.31;602672;229;66905;-67
2023/10/22 09:37:53;;;;;;;;;;;;;;;20.83;55.85;96798.75;607124;229;68581;-67
2023/10/22 09:40:21;;;;;;;;;;;;;;;20.83;55.51;96796.87;609015;233;64771;-67
2023/10/22 09:42:50;;;;;;;;;;;;;;;20.83;55.41;96791.52;608582;233;68830;-67
2023/10/22 09:45:21;;;;;;;;;;;;;;;20.82;55.37;96783.80;609009;231;66594;-67
2023/10/22 09:47:49;;;;;;;;;;;;;;;20.82;55.38;96781.13;608938;231;62598;-66
2023/10/22 09:50:19;;;;;;;;;;;;;;;20.81;55.43;96771.51;604037;231;66418;-66
2023/10/22 09:52:47;;;;;;;;;;;;;;;20.80;55.42;96759.23;601272;236;68863;-66
2023/10/22 09:55:15;;;;;;;;;;;;;;;20.81;55.44;96766.95;601379;236;62526;-66
2023/10/22 09:57:44;;;;;;;;;;;;;;;20.82;55.52;96759.77;601294;236;69166;-66
2023/10/22 10:02:49;;;;;;;;;;;;;;;20.81;55.54;96766.16;602206;235;39135;-66
2023/10/22 10:05:19;;;;;;;;;;;;;;;20.81;55.56;96764.28;602250;235;69763;-66
2023/10/22 10:07:47;;;;;;;;;;;;;;;20.82;55.53;96770.45;602248;235;68622;-66
2023/10/22 10:10:15;;;;;;;;;;;;;;;20.81;55.52;96772.30;602363;235;63498;-66
2023/10/22 10:12:43;;;;;;;;;;;;;;;20.82;55.48;96765.11;602303;235;66311;-65
2023/10/22 10:15:12;;;;;;;;;;;;;;;20.82;55.51;96765.11;602283;235;68555;-66
2023/10/22 10:17:41;;;;;;;;;;;;;;;20.81;55.51;96756.27;601553;235;63477;-67
2023/10/22 10:20:25;;;;;;;;;;;;;;;20.82;55.47;96771.25;600304;235;67132;-67
2023/10/22 10:23:04;;;;;;;;;;;;;;;20.82;55.39;96755.22;602281;235;68426;-68
2023/10/22 10:25:32;;;;;;;;;;;;;;;20.83;55.34;96758.68;602247;234;64774;-67
2023/10/22 10:28:01;;;;;;;;;;;;;;;20.82;55.28;96757.89;597110;235;68503;-67
2023/10/22 10:30:29;;;;;;;;;;;;;;;20.83;55.25;96753.34;602291;235;66409;-67
2023/10/22 10:32:56;;;;;;;;;;;;;;;20.82;55.30;96749.88;602298;235;62611;-67
2023/10/22 10:35:25;;;;;;;;;;;;;;;20.82;55.32;96757.89;602277;235;66126;-67
2023/10/22 10:38:10;;;;;;;;;;;;;;;20.83;55.38;96756.02;602349;235;66382;-67
2023/10/22 10:40:43;;;;;;;;;;;;;;;20.82;55.40;96747.20;602316;235;64744;-67
2023/10/22 10:43:10;;;;;;;;;;;;;;;20.83;55.38;96751.46;602034;235;69021;-67
2023/10/22 10:45:41;;;;;;;;;;;;;;;20.83;55.42;96745.33;602253;235;67038;-67
2023/10/22 10:48:10;;;;;;;;;;;;;;;20.82;55.48;96749.88;602261;233;64675;-69
2023/10/22 10:50:38;;;;;;;;;;;;;;;20.83;55.46;96742.66;601505;235;68798;-66
2023/10/22 10:53:06;;;;;;;;;;;;;;;20.84;55.47;96744.24;602303;235;68945;-66
2023/10/22 10:55:33;;;;;;;;;;;;;;;20.84;55.46;96744.24;602263;235;64577;-66
2023/10/22 10:58:01;;;;;;;;;;;;;;;20.82;55.46;96747.20;602280;235;66535;-66
2023/10/22 11:00:31;;;;;;;;;;;;;;;20.83;55.46;96748.00;602464;232;68696;-67
2023/10/22 11:02:59;;;;;;;;;;;;;;;20.83;55.42;96731.98;608912;233;62796;-67
2023/10/22 11:05:39;;;;;;;;;;;;;;;20.86;55.37;96741.31;609049;233;68569;-67
2023/10/22 11:08:08;;;;;;;;;;;;;;;20.84;55.50;96741.57;609057;233;68586;-66
2023/10/22 11:10:36;;;;;;;;;;;;;;;20.84;55.39;96738.91;608927;233;64593;-67
2023/10/22 11:13:05;;;;;;;;;;;;;;;20.84;55.42;96742.39;609032;233;69187;-67
2023/10/22 11:15:35;;;;;;;;;;;;;;;20.84;55.41;96745.06;608962;233;68822;-66
2023/10/22 11:18:03;;;;;;;;;;;;;;;20.84;55.39;96749.59;608875;233;63357;-66
2023/10/22 11:20:30;;;;;;;;;;;;;;;20.85;55.40;96753.87;609069;233;68627;-66
2023/10/22 11:22:58;;;;;;;;;;;;;;;20.85;55.37;96756.54;609004;233;68698;-66
2023/10/22 11:25:26;;;;;;;;;;;;;;;20.86;55.40;96746.66;609016;233;64651;-66
2023/10/22 11:27:54;;;;;;;;;;;;;;;20.86;55.41;96751.99;609031;233;69473;-66
2023/10/22 11:30:36;;;;;;;;;;;;;;;20.86;55.38;96750.11;608984;233;68645;-66
2023/10/22 11:33:05;;;;;;;;;;;;;;;20.87;55.38;96751.73;609020;233;62436;-67
2023/10/22 11:35:32;;;;;;;;;;;;;;;20.86;55.36;96750.11;609037;233;66639;-67
2023/10/22 11:38:00;;;;;;;;;;;;;;;20.87;55.38;96748.23;609017;233;68530;-67
2023/10/22 11:40:29;;;;;;;;;;;;;;;20.86;55.34;96736.77;609004;233;62489;-67
2023/10/22 11:43:03;;;;;;;;;;;;;;;20.86;55.31;96736.77;608936;232;68770;-67
2023/10/22 11:45:34;;;;;;;;;;;;;;;20.87;55.26;96729.54;608804;232;68690;-67
2023/10/22 11:48:14;;;;;;;;;;;;;;;20.85;55.25;96716.48;609039;232;64787;-67
2023/10/22 11:50:50;;;;;;;;;;;;;;;20.86;55.24;96714.59;608848;233;66431;-67
2023/10/22 11:53:15;;;;;;;;;;;;;;;20.86;55.18;96704.71;608814;233;66368;-67
2023/10/22 11:55:42;;;;;;;;;;;;;;;20.87;55.14;96706.33;608992;233;62833;-67
2023/10/22 11:58:18;;;;;;;;;;;;;;;20.87;55.10;96705.50;609008;233;66474;-67
2023/10/22 12:00:46;;;;;;;;;;;;;;;20.87;55.12;96700.16;609068;232;68843;-67
2023/10/22 12:03:14;;;;;;;;;;;;;;;20.87;55.10;96700.16;610994;232;64767;-67
2023/10/22 12:05:41;;;;;;;;;;;;;;;20.86;55.10;96702.03;610926;232;66617;-67
2023/10/22 12:08:09;;;;;;;;;;;;;;;20.87;55.12;96711.66;610930;232;68637;-67
2023/10/22 12:10:36;;;;;;;;;;;;;;;20.87;55.12;96721.53;610923;232;62502;-67
2023/10/22 12:13:10;;;;;;;;;;;;;;;20.88;55.18;96717.80;610945;232;66421;-67
2023/10/22 12:15:34;;;;;;;;;;;;;;;20.88;55.18;96709.78;610673;232;68830;-67
2023/10/22 12:18:01;;;;;;;;;;;;;;;20.87;55.18;96706.33;610991;232;62447;-67
2023/10/22 12:20:30;;;;;;;;;;;;;;;20.88;55.19;96710.58;610967;230;66323;-68
2023/10/22 12:22:57;;;;;;;;;;;;;;;20.88;55.22;96701.77;610964;232;68773;-67
2023/10/22 12:25:26;;;;;;;;;;;;;;;20.88;55.25;96691.09;610948;232;65674;-67
2023/10/22 12:27:53;;;;;;;;;;;;;;;20.88;55.29;96691.88;610952;232;66699;-67
2023/10/22 12:30:21;;;;;;;;;;;;;;;20.88;55.33;96697.22;610965;232;66603;-67
2023/10/22 12:32:48;;;;;;;;;;;;;;;20.88;55.36;96681.20;610954;232;64578;-67
2023/10/22 12:35:16;;;;;;;;;;;;;;;20.89;55.37;96679.32;610968;232;68622;-68
2023/10/22 12:37:43;;;;;;;;;;;;;;;20.89;55.36;96682.78;610966;232;68826;-68
2023/10/22 12:40:11;;;;;;;;;;;;;;;20.89;55.36;96688.13;611015;232;64797;-68
2023/10/22 12:42:44;;;;;;;;;;;;;;;20.89;55.37;96682.78;611020;232;67704;-68
2023/10/22 12:45:11;;;;;;;;;;;;;;;20.90;55.33;96680.91;610736;232;66587;-67
2023/10/22 12:47:39;;;;;;;;;;;;;;;20.89;55.37;96684.66;610968;232;64786;-66
2023/10/22 12:50:07;;;;;;;;;;;;;;;20.89;55.34;96676.65;610922;232;68892;-67
2023/10/22 12:52:35;;;;;;;;;;;;;;;20.89;55.39;96676.65;610995;232;68700;-66
2023/10/22 12:55:04;;;;;;;;;;;;;;;20.90;55.40;96686.25;611010;232;62660;-67